Time;durP1;ratioP1;P1;durP2;ratioP2;P2;SDS_P1;SDS_P2;PMS_P1;PMS_P2;Temp;Humidity;BMP_temperature;BMP_pressure;BME280_temperature;BME280_humidity;BME280_pressure;Samples;Min_cycle;Max_cycle;Signal;HPM_P1;HPM_P2
2023/04/07 00:00:07;;;;;;;2.30;1.42;;;;;;;22.13;34.33;100120.97;7395369;19;20015;-83
2023/04/07 00:02:40;;;;;;;0.20;0.20;;;;;;;22.20;34.37;100123.13;7393988;19;20037;-83
2023/04/07 00:05:07;;;;;;;0.55;0.55;;;;;;;22.24;34.46;100122.78;7395888;19;20028;-83
2023/04/07 00:07:33;;;;;;;5.10;0.90;;;;;;;22.14;34.54;100125.31;7390562;19;20386;-82
2023/04/07 00:09:59;;;;;;;0.32;0.32;;;;;;;22.14;34.38;100135.91;7395053;19;20086;-82
2023/04/07 00:12:25;;;;;;;1.08;0.60;;;;;;;22.14;34.12;100130.22;7392074;19;20095;-82
2023/04/07 00:14:51;;;;;;;11.80;0.60;;;;;;;22.12;34.40;100124.34;7393968;19;20022;-82
2023/04/07 00:17:18;;;;;;;0.63;0.63;;;;;;;22.24;34.12;100112.19;7390166;19;20019;-82
2023/04/07 00:19:44;;;;;;;0.60;0.60;;;;;;;22.15;34.30;100115.50;7394262;19;20044;-81
2023/04/07 00:22:10;;;;;;;0.60;0.60;;;;;;;22.16;34.29;100114.19;7393392;19;20011;-82
2023/04/07 00:24:36;;;;;;;0.55;0.55;;;;;;;22.13;34.08;100112.47;7391531;19;20025;-83
2023/04/07 00:27:02;;;;;;;0.45;0.45;;;;;;;22.11;33.89;100120.00;7391364;19;20025;-82
2023/04/07 00:29:28;;;;;;;0.35;0.35;;;;;;;22.14;34.09;100113.97;7393343;19;20019;-83
2023/04/07 00:31:55;;;;;;;0.13;0.13;;;;;;;22.07;34.12;100125.25;7392132;19;20037;-81
2023/04/07 00:34:21;;;;;;;11.45;0.90;;;;;;;22.05;33.99;100117.25;7397129;19;20018;-82
2023/04/07 00:36:50;;;;;;;1.00;0.90;;;;;;;21.98;34.34;100126.47;7391347;19;20020;-81
2023/04/07 00:39:18;;;;;;;0.57;0.57;;;;;;;21.82;34.13;100127.53;7391689;19;20018;-81
2023/04/07 00:41:45;;;;;;;0.47;0.47;;;;;;;21.91;33.94;100134.84;7392506;19;21003;-82
2023/04/07 00:44:11;;;;;;;1.05;0.40;;;;;;;22.17;33.40;100138.41;7395774;19;20014;-81
2023/04/07 00:46:38;;;;;;;0.57;0.57;;;;;;;22.26;33.13;100135.09;7392438;19;20023;-81
2023/04/07 00:49:05;;;;;;;0.50;0.50;;;;;;;22.47;32.79;100141.59;7393987;19;20402;-81
2023/04/07 00:51:31;;;;;;;1.65;0.75;;;;;;;22.64;33.04;100135.53;7392624;19;20019;-81
2023/04/07 00:53:59;;;;;;;0.85;0.52;;;;;;;22.67;32.83;100139.38;7394773;19;20473;-82
2023/04/07 00:56:26;;;;;;;0.65;0.65;;;;;;;22.69;32.95;100134.66;7390259;19;20090;-81
2023/04/07 00:58:52;;;;;;;0.50;0.50;;;;;;;22.72;33.20;100139.22;7392155;19;20059;-81
2023/04/07 01:01:23;;;;;;;0.63;0.63;;;;;;;22.10;33.94;100129.81;7390587;19;20481;-82
2023/04/07 01:04:11;;;;;;;1.00;1.00;;;;;;;22.48;33.28;100126.06;7392685;19;20018;-82
2023/04/07 01:06:42;;;;;;;0.50;0.50;;;;;;;22.63;33.20;100128.34;7392256;19;20410;-83
2023/04/07 01:09:33;;;;;;;1.75;0.93;;;;;;;22.28;33.44;100132.50;7391023;19;20027;-83
2023/04/07 01:12:20;;;;;;;1.10;1.10;;;;;;;22.61;33.10;100145.16;7389529;19;20019;-83
2023/04/07 01:14:53;;;;;;;0.47;0.40;;;;;;;22.63;32.96;100148.97;7390124;19;20263;-83
2023/04/07 01:17:34;;;;;;;0.52;0.52;;;;;;;22.42;32.86;100142.47;7388473;19;20025;-83
2023/04/07 01:20:09;;;;;;;0.40;0.40;;;;;;;22.49;32.57;100144.66;7390656;19;20094;-83
2023/04/07 01:22:43;;;;;;;0.28;0.28;;;;;;;22.34;32.43;100147.31;7391313;19;20011;-83
2023/04/07 01:26:04;;;;;;;1.35;1.20;;;;;;;22.53;32.52;100149.97;7390653;19;20017;-83
2023/04/07 01:29:02;;;;;;;1.10;1.05;;;;;;;22.55;32.35;100142.44;7387920;19;20073;-83
2023/04/07 01:31:29;;;;;;;1.23;1.15;;;;;;;22.47;32.38;100150.13;7390255;19;20018;-83
2023/04/07 01:34:00;;;;;;;0.38;0.38;;;;;;;22.54;32.12;100149.41;7393263;19;20027;-82
2023/04/07 01:36:27;;;;;;;0.50;0.50;;;;;;;22.73;32.15;100139.97;7389362;19;20018;-82
2023/04/07 01:38:55;;;;;;;9.00;1.85;;;;;;;22.91;31.89;100139.03;7388276;19;20090;-83
2023/04/07 01:41:22;;;;;;;0.63;0.63;;;;;;;22.98;31.91;100132.63;7391221;19;20014;-83
2023/04/07 01:43:50;;;;;;;0.47;0.47;;;;;;;22.96;31.60;100126.75;7393806;19;20026;-83
2023/04/07 01:46:16;;;;;;;1.08;1.08;;;;;;;22.92;31.80;100140.53;7389876;19;20025;-82
2023/04/07 01:48:43;;;;;;;2.15;0.70;;;;;;;22.83;31.35;100150.31;7389389;19;20018;-83
2023/04/07 01:51:10;;;;;;;1.85;1.08;;;;;;;22.90;31.33;100137.50;7391357;19;20019;-82
2023/04/07 01:53:38;;;;;;;0.73;0.73;;;;;;;22.69;31.93;100133.88;7390899;19;20389;-83
2023/04/07 01:56:05;;;;;;;1.15;1.05;;;;;;;22.61;32.22;100130.97;7389217;19;20022;-82
2023/04/07 01:58:33;;;;;;;0.35;0.35;;;;;;;22.61;32.00;100145.94;7389626;19;20078;-82
2023/04/07 02:00:59;;;;;;;11.50;0.85;;;;;;;22.65;31.92;100154.13;7389454;19;20018;-82
2023/04/07 02:03:42;;;;;;;0.38;0.38;;;;;;;22.63;31.55;100150.31;7390953;19;20062;-82
2023/04/07 02:06:10;;;;;;;0.47;0.47;;;;;;;22.63;31.60;100142.56;7389489;19;20016;-83
2023/04/07 02:08:43;;;;;;;1.67;0.75;;;;;;;22.40;31.92;100142.28;7389618;19;20078;-82
2023/04/07 02:11:12;;;;;;;0.47;0.47;;;;;;;22.17;32.09;100135.59;7389498;19;20049;-82
2023/04/07 02:13:40;;;;;;;0.52;0.52;;;;;;;21.36;32.89;100148.03;7391426;19;20044;-82
2023/04/07 02:16:11;;;;;;;0.60;0.60;;;;;;;21.51;33.33;100153.91;7387950;19;20481;-82
2023/04/07 02:18:38;;;;;;;0.60;0.60;;;;;;;21.53;32.87;100142.81;7390353;19;20021;-83
2023/04/07 02:21:04;;;;;;;2.97;0.88;;;;;;;20.95;33.65;100134.31;7389452;19;20013;-83
2023/04/07 02:23:34;;;;;;;0.50;0.50;;;;;;;21.77;32.69;100131.25;7390306;19;20039;-82
2023/04/07 02:26:00;;;;;;;3.72;1.70;;;;;;;21.95;32.30;100132.44;7389593;19;20481;-82
2023/04/07 02:28:26;;;;;;;0.52;0.52;;;;;;;22.15;32.39;100143.88;7387898;19;20105;-82
2023/04/07 02:30:53;;;;;;;0.70;0.70;;;;;;;22.34;32.16;100138.03;7388249;19;20011;-82
2023/04/07 02:33:19;;;;;;;0.30;0.30;;;;;;;22.22;32.33;100133.94;7389765;19;20022;-82
2023/04/07 02:35:45;;;;;;;0.35;0.35;;;;;;;22.19;32.10;100132.97;7388014;19;20410;-82
2023/04/07 02:38:11;;;;;;;0.52;0.52;;;;;;;22.05;32.17;100145.63;7386180;19;20023;-82
2023/04/07 02:40:37;;;;;;;1.80;1.00;;;;;;;21.83;32.19;100146.09;7389299;19;20015;-82
2023/04/07 02:43:04;;;;;;;0.65;0.65;;;;;;;21.63;32.61;100144.69;7390249;19;20033;-82
2023/04/07 02:45:30;;;;;;;0.52;0.52;;;;;;;21.52;32.66;100141.28;7390142;19;20026;-83
2023/04/07 02:47:56;;;;;;;0.57;0.57;;;;;;;21.46;32.34;100132.13;7389942;19;20018;-82
2023/04/07 02:50:24;;;;;;;0.10;0.10;;;;;;;21.48;32.42;100129.53;7387863;19;20473;-82
2023/04/07 02:52:50;;;;;;;0.30;0.30;;;;;;;21.49;32.58;100140.31;7394625;19;20346;-83
2023/04/07 02:55:17;;;;;;;0.50;0.50;;;;;;;21.28;32.46;100138.66;7396964;19;20019;-82
2023/04/07 02:57:43;;;;;;;3.72;2.03;;;;;;;21.40;32.28;100137.91;7393007;19;20023;-82
2023/04/07 03:00:24;;;;;;;0.25;0.25;;;;;;;21.40;32.05;100139.97;7394966;19;20346;-82
2023/04/07 03:03:02;;;;;;;0.52;0.52;;;;;;;21.44;32.31;100143.25;7395541;19;20016;-83
2023/04/07 03:05:31;;;;;;;0.40;0.40;;;;;;;21.50;31.99;100141.84;7393947;19;20460;-83
2023/04/07 03:07:59;;;;;;;0.52;0.52;;;;;;;21.41;32.43;100145.09;7395811;19;20035;-82
2023/04/07 03:10:26;;;;;;;0.57;0.57;;;;;;;21.26;32.32;100132.75;7398027;19;20419;-82
2023/04/07 03:12:52;;;;;;;0.35;0.35;;;;;;;21.17;32.33;100141.69;7395227;19;20016;-82
2023/04/07 03:15:18;;;;;;;0.35;0.35;;;;;;;21.27;31.99;100145.63;7394827;19;20018;-82
2023/04/07 03:17:46;;;;;;;9.20;1.23;;;;;;;21.10;32.53;100155.19;7391750;19;20022;-82
2023/04/07 03:20:12;;;;;;;0.70;0.70;;;;;;;21.03;32.57;100144.47;7395549;19;20018;-82
2023/04/07 03:22:39;;;;;;;0.30;0.30;;;;;;;20.87;32.63;100159.69;7394707;19;20074;-83
2023/04/07 03:25:10;;;;;;;;;;;;;;;21.05;32.28;100152.47;7395006;19;20035;-82
2023/04/07 03:27:36;;;;;;;1.65;1.27;;;;;;;20.95;32.18;100160.56;7394035;19;19923;-82
2023/04/07 03:30:03;;;;;;;0.70;0.70;;;;;;;20.95;32.08;100163.41;7393386;19;20018;-83
2023/04/07 03:32:30;;;;;;;0.45;0.45;;;;;;;20.99;32.37;100149.69;7394540;19;20089;-82
2023/04/07 03:34:56;;;;;;;0.30;0.30;;;;;;;20.97;32.39;100151.53;7397412;19;20353;-83
2023/04/07 03:37:22;;;;;;;0.73;0.73;;;;;;;20.90;32.17;100158.56;7392158;19;20031;-82
2023/04/07 03:39:48;;;;;;;1.88;0.68;;;;;;;20.85;31.80;100155.84;7394777;19;20077;-82
2023/04/07 03:42:31;;;;;;;0.63;0.63;;;;;;;21.08;32.06;100160.63;7393025;19;20086;-82
2023/04/07 03:45:02;;;;;;;0.63;0.63;;;;;;;21.73;31.46;100159.94;7393855;19;20014;-82
2023/04/07 03:47:28;;;;;;;0.52;0.52;;;;;;;21.35;31.66;100164.28;7393405;19;20078;-82
2023/04/07 03:49:59;;;;;;;31.52;1.23;;;;;;;21.08;32.02;100165.53;7393236;19;20583;-82
2023/04/07 03:52:26;;;;;;;0.73;0.73;;;;;;;20.97;31.96;100157.94;7393276;19;20021;-82
2023/04/07 03:55:00;;;;;;;0.32;0.32;;;;;;;21.04;31.74;100157.34;7392870;19;20592;-82
2023/04/07 03:57:30;;;;;;;0.52;0.52;;;;;;;20.96;32.08;100167.00;7391810;19;20025;-82
2023/04/07 03:59:56;;;;;;;0.45;0.45;;;;;;;20.85;31.91;100167.94;7392313;19;20014;-82
2023/04/07 04:02:22;;;;;;;0.73;0.73;;;;;;;20.78;31.83;100174.22;7391727;19;20035;-82
2023/04/07 04:04:51;;;;;;;0.70;0.70;;;;;;;20.90;31.75;100175.56;7396598;19;20110;-82
2023/04/07 04:07:20;;;;;;;0.55;0.55;;;;;;;21.12;31.66;100172.41;7392691;19;20473;-82
2023/04/07 04:09:49;;;;;;;0.52;0.52;;;;;;;21.14;31.44;100172.63;7396035;19;20018;-82
2023/04/07 04:12:17;;;;;;;2.53;0.47;;;;;;;21.23;31.86;100174.28;7392718;19;20501;-81
2023/04/07 04:14:52;;;;;;;0.50;0.50;;;;;;;21.23;31.66;100167.84;7392689;19;20074;-81
2023/04/07 04:17:19;;;;;;;0.70;0.70;;;;;;;20.92;31.98;100172.97;7392825;19;20023;-82
2023/04/07 04:19:46;;;;;;;1.08;0.65;;;;;;;20.77;32.23;100175.50;7392266;19;20027;-82
2023/04/07 04:22:24;;;;;;;0.43;0.43;;;;;;;19.36;33.27;100190.41;7393283;19;20010;-82
2023/04/07 04:24:54;;;;;;;0.65;0.65;;;;;;;20.30;32.14;100185.75;7392635;19;20039;-82
2023/04/07 04:27:22;;;;;;;0.63;0.63;;;;;;;20.30;31.83;100180.84;7394610;19;20010;-81
2023/04/07 04:29:53;;;;;;;0.45;0.45;;;;;;;20.32;32.15;100180.31;7394158;19;20085;-82
2023/04/07 04:32:28;;;;;;;25.85;1.58;;;;;;;20.33;32.09;100193.16;7392967;19;20022;-82
2023/04/07 04:34:55;;;;;;;0.38;0.38;;;;;;;20.39;31.93;100191.78;7395253;19;20011;-82
2023/04/07 04:37:22;;;;;;;1.30;0.80;;;;;;;20.37;31.77;100202.09;7390707;19;20042;-82
2023/04/07 04:39:48;;;;;;;0.22;0.22;;;;;;;20.24;31.54;100210.50;7392123;19;20014;-82
2023/04/07 04:42:18;;;;;;;0.38;0.38;;;;;;;20.11;31.90;100204.72;7391287;19;20015;-82
2023/04/07 04:44:45;;;;;;;0.40;0.40;;;;;;;20.27;31.78;100195.31;7391190;19;20365;-82
2023/04/07 04:47:13;;;;;;;4.57;1.23;;;;;;;20.37;32.03;100213.44;7391348;19;20015;-81
2023/04/07 04:49:40;;;;;;;0.35;0.35;;;;;;;20.35;31.70;100207.53;7392325;19;20014;-81
2023/04/07 04:52:06;;;;;;;7.72;1.40;;;;;;;20.38;32.09;100214.94;7391839;19;20018;-81
2023/04/07 04:54:38;;;;;;;0.50;0.50;;;;;;;20.35;32.10;100216.03;7391401;19;20019;-81
2023/04/07 04:57:05;;;;;;;0.50;0.50;;;;;;;20.58;31.49;100211.56;7390926;19;20470;-81
2023/04/07 04:59:33;;;;;;;0.85;0.85;;;;;;;20.77;31.22;100220.81;7389927;19;20039;-83
2023/04/07 05:02:02;;;;;;;0.55;0.55;;;;;;;20.93;31.02;100230.34;7390867;19;20016;-82
2023/04/07 05:04:28;;;;;;;0.60;0.60;;;;;;;21.02;31.05;100227.91;7395354;19;20101;-83
2023/04/07 05:07:01;;;;;;;2.75;1.05;;;;;;;21.09;31.23;100232.94;7390196;19;20029;-82
2023/04/07 05:09:30;;;;;;;1.08;1.08;;;;;;;21.14;31.23;100234.16;7392825;19;20094;-82
2023/04/07 05:11:57;;;;;;;1.05;1.05;;;;;;;21.00;30.98;100241.84;7391118;19;20015;-83
2023/04/07 05:14:25;;;;;;;26.05;1.58;;;;;;;20.92;31.00;100240.19;7387576;19;20086;-83
2023/04/07 05:16:57;;;;;;;0.73;0.55;;;;;;;20.79;31.06;100238.03;7389278;19;20006;-84
2023/04/07 05:19:28;;;;;;;0.50;0.50;;;;;;;20.75;31.26;100231.91;7389152;19;20374;-82
2023/04/07 05:21:59;;;;;;;0.77;0.77;;;;;;;20.64;31.21;100229.25;7390432;19;20503;-84
2023/04/07 05:24:28;;;;;;;0.32;0.32;;;;;;;20.59;31.40;100235.75;7391760;19;20010;-84
2023/04/07 05:26:57;;;;;;;;;;;;;;;20.90;31.39;100237.84;7391361;19;20018;-84
2023/04/07 05:29:25;;;;;;;0.82;0.82;;;;;;;20.77;31.16;100234.22;7390768;19;19914;-83
2023/04/07 05:31:52;;;;;;;0.63;0.63;;;;;;;20.76;31.37;100244.78;7389761;19;20014;-83
2023/04/07 05:34:19;;;;;;;0.70;0.70;;;;;;;20.84;31.26;100245.69;7393239;19;20015;-83
2023/04/07 05:36:50;;;;;;;3.17;1.75;;;;;;;20.85;31.42;100241.56;7389974;19;20015;-82
2023/04/07 05:39:16;;;;;;;1.40;1.40;;;;;;;20.63;31.33;100236.22;7390447;19;20066;-83
2023/04/07 05:41:44;;;;;;;24.55;3.00;;;;;;;20.58;31.64;100239.88;7390708;19;20026;-83
2023/04/07 05:44:11;;;;;;;5.72;2.50;;;;;;;20.64;31.44;100249.03;7391572;19;20477;-83
2023/04/07 05:46:40;;;;;;;0.50;0.50;;;;;;;20.64;31.46;100246.22;7389737;19;20017;-82
2023/04/07 05:49:06;;;;;;;8.73;1.63;;;;;;;20.62;31.44;100256.56;7389473;19;20022;-81
2023/04/07 05:51:33;;;;;;;10.20;3.00;;;;;;;20.69;31.40;100262.38;7389426;19;20039;-82
2023/04/07 05:54:03;;;;;;;18.33;5.95;;;;;;;20.58;31.39;100268.19;7390640;19;20564;-82
2023/04/07 05:56:29;;;;;;;34.95;6.88;;;;;;;20.54;31.55;100255.63;7388144;19;20015;-81
2023/04/07 05:58:55;;;;;;;11.48;5.40;;;;;;;20.51;31.15;100257.47;7389478;19;20405;-83
2023/04/07 06:01:22;;;;;;;31.95;9.15;;;;;;;20.53;31.36;100266.19;7389865;19;20007;-82
2023/04/07 06:03:49;;;;;;;67.40;13.27;;;;;;;20.51;31.48;100268.78;7389159;19;20018;-82
2023/04/07 06:06:19;;;;;;;79.32;14.88;;;;;;;20.55;31.38;100269.25;7388861;19;20010;-82
2023/04/07 06:08:46;;;;;;;18.88;6.15;;;;;;;20.61;31.78;100272.00;7389566;19;20343;-83
2023/04/07 06:11:12;;;;;;;50.70;8.18;;;;;;;20.69;31.34;100273.69;7389626;19;20022;-82
2023/04/07 06:13:39;;;;;;;25.92;5.00;;;;;;;20.79;31.72;100283.31;7390154;19;20015;-82
2023/04/07 06:16:05;;;;;;;4.05;3.70;;;;;;;20.87;31.61;100287.09;7389199;19;20034;-83
2023/04/07 06:18:31;;;;;;;5.35;2.47;;;;;;;20.88;31.61;100285.78;7388360;19;20381;-82
2023/04/07 06:20:58;;;;;;;1.38;1.17;;;;;;;20.89;31.48;100295.81;7388263;19;20018;-82
2023/04/07 06:23:25;;;;;;;0.68;0.68;;;;;;;20.98;31.58;100289.75;7391594;19;20023;-82
2023/04/07 06:25:52;;;;;;;3.67;0.95;;;;;;;20.22;32.07;100297.97;7392714;19;20093;-82
2023/04/07 06:28:18;;;;;;;2.40;1.67;;;;;;;20.33;32.36;100297.84;7397710;19;20022;-82
2023/04/07 06:30:45;;;;;;;13.43;1.65;;;;;;;20.38;32.00;100294.16;7397310;19;20018;-82
2023/04/07 06:33:12;;;;;;;0.93;0.93;;;;;;;20.46;32.42;100305.66;7397144;19;20039;-84
2023/04/07 06:35:40;;;;;;;8.73;2.10;;;;;;;20.52;32.31;100298.63;7396267;19;20019;-85
2023/04/07 06:38:07;;;;;;;3.13;1.67;;;;;;;20.69;32.50;100307.66;7394268;19;20082;-87
2023/04/07 06:40:33;;;;;;;3.50;2.70;;;;;;;20.81;31.96;100297.69;7397347;19;20018;-87
2023/04/07 06:42:59;;;;;;;2.00;1.25;;;;;;;20.48;32.71;100298.16;7398236;19;20123;-86
2023/04/07 06:45:37;;;;;;;1.20;1.10;;;;;;;20.75;32.58;100299.06;7394238;19;20397;-88
2023/04/07 06:48:03;;;;;;;1.10;1.10;;;;;;;20.99;32.23;100296.94;7397810;19;20521;-87
2023/04/07 06:50:29;;;;;;;0.50;0.50;;;;;;;21.16;32.31;100299.53;7398113;19;20055;-88
2023/04/07 06:52:55;;;;;;;1.75;1.52;;;;;;;21.21;32.35;100307.19;7397475;19;20018;-88
2023/04/07 06:55:22;;;;;;;0.93;0.93;;;;;;;21.23;32.00;100303.81;7397947;19;20137;-89
2023/04/07 06:57:51;;;;;;;1.67;1.13;;;;;;;21.14;32.39;100297.25;7396421;19;20019;-89
2023/04/07 07:00:17;;;;;;;0.43;0.43;;;;;;;20.90;32.69;100311.47;7398133;19;20022;-89
2023/04/07 07:02:44;;;;;;;1.02;1.02;;;;;;;20.12;34.02;100308.09;7398299;19;20039;-85
2023/04/07 07:05:10;;;;;;;2.38;1.45;;;;;;;20.76;33.24;100312.72;7400301;19;20067;-85
2023/04/07 07:07:36;;;;;;;9.18;1.13;;;;;;;20.99;33.12;100325.25;7395566;19;20039;-84
2023/04/07 07:10:03;;;;;;;1.08;1.08;;;;;;;21.14;32.84;100336.91;7396814;19;20037;-84
2023/04/07 07:12:29;;;;;;;9.38;1.50;;;;;;;21.15;32.77;100343.34;7398728;19;20706;-86
2023/04/07 07:14:55;;;;;;;0.82;0.80;;;;;;;21.17;32.88;100328.63;7396716;19;20014;-87
2023/04/07 07:17:21;;;;;;;4.13;2.15;;;;;;;21.26;32.56;100331.09;7400366;19;20019;-85
2023/04/07 07:19:47;;;;;;;1.02;1.02;;;;;;;21.34;33.05;100343.31;7402069;19;20018;-85
2023/04/07 07:22:14;;;;;;;1.58;1.45;;;;;;;21.51;33.22;100340.97;7397522;19;20033;-85
2023/04/07 07:24:40;;;;;;;3.58;1.20;;;;;;;21.69;33.01;100345.84;7397671;19;20073;-87
2023/04/07 07:27:06;;;;;;;0.75;0.75;;;;;;;21.77;33.09;100346.72;7396243;19;20080;-85
2023/04/07 07:29:33;;;;;;;0.60;0.60;;;;;;;21.87;33.32;100345.78;7396050;19;20379;-85
2023/04/07 07:31:59;;;;;;;0.55;0.55;;;;;;;21.95;33.11;100340.25;7397110;19;20023;-85
2023/04/07 07:34:25;;;;;;;0.82;0.82;;;;;;;22.08;33.01;100343.13;7399475;19;20086;-85
2023/04/07 07:36:51;;;;;;;0.88;0.88;;;;;;;22.30;33.33;100345.53;7394626;19;20512;-85
2023/04/07 07:39:18;;;;;;;9.52;0.90;;;;;;;22.44;33.19;100351.97;7398210;19;20561;-85
2023/04/07 07:41:45;;;;;;;0.90;0.80;;;;;;;22.59;33.05;100352.19;7396827;19;20023;-83
2023/04/07 07:44:11;;;;;;;5.50;1.13;;;;;;;22.64;33.20;100351.34;7398268;19;20026;-84
2023/04/07 07:46:37;;;;;;;1.00;1.00;;;;;;;22.80;33.51;100343.78;7395083;19;20039;-85
2023/04/07 07:49:04;;;;;;;8.90;1.80;;;;;;;22.84;33.53;100338.53;7396746;19;20039;-88
2023/04/07 07:51:30;;;;;;;1.48;1.38;;;;;;;22.98;33.35;100340.78;7396103;19;20097;-85
2023/04/07 07:53:56;;;;;;;0.85;0.82;;;;;;;23.26;33.60;100345.81;7397560;19;20349;-85
2023/04/07 07:56:23;;;;;;;3.17;1.27;;;;;;;23.56;33.83;100340.50;7395484;19;20041;-84
2023/04/07 07:58:49;;;;;;;0.50;0.50;;;;;;;23.74;33.75;100342.34;7396953;19;20425;-86
2023/04/07 08:01:15;;;;;;;1.90;1.45;;;;;;;23.81;33.53;100349.44;7395711;19;20020;-85
2023/04/07 08:03:41;;;;;;;2.72;0.65;;;;;;;23.98;33.86;100346.91;7397708;19;20007;-85
2023/04/07 08:06:08;;;;;;;1.75;0.77;;;;;;;24.50;33.86;100340.09;7396487;19;20010;-85
2023/04/07 08:08:34;;;;;;;1.85;1.08;;;;;;;24.84;33.67;100334.97;7396607;19;20369;-86
2023/04/07 08:11:01;;;;;;;0.52;0.52;;;;;;;25.06;33.60;100340.00;7396137;19;20006;-86
2023/04/07 08:13:27;;;;;;;0.57;0.57;;;;;;;24.94;33.85;100344.50;7397756;19;20119;-85
2023/04/07 08:15:53;;;;;;;0.80;0.80;;;;;;;24.88;34.18;100346.00;7397946;19;20006;-86
2023/04/07 08:18:19;;;;;;;1.58;1.33;;;;;;;24.96;34.71;100341.88;7396796;19;20053;-87
2023/04/07 08:20:46;;;;;;;2.40;1.17;;;;;;;25.00;34.58;100350.81;7398351;19;20018;-87
2023/04/07 08:23:12;;;;;;;1.02;0.85;;;;;;;25.03;34.75;100352.53;7398761;19;20037;-87
2023/04/07 08:25:41;;;;;;;0.73;0.73;;;;;;;25.14;34.73;100346.50;7394924;19;20076;-87
2023/04/07 08:28:07;;;;;;;0.70;0.70;;;;;;;25.25;34.61;100351.81;7393808;19;20007;-86
2023/04/07 08:30:33;;;;;;;3.20;0.95;;;;;;;25.30;35.11;100344.44;7396043;19;20540;-86
2023/04/07 08:32:59;;;;;;;1.40;1.17;;;;;;;25.38;34.77;100354.53;7396370;19;20029;-85
2023/04/07 08:35:26;;;;;;;2.28;1.00;;;;;;;25.47;35.26;100356.09;7395319;19;20018;-86
2023/04/07 08:37:52;;;;;;;1.60;0.90;;;;;;;25.49;35.14;100353.44;7395314;19;20359;-85
2023/04/07 08:40:18;;;;;;;0.50;0.50;;;;;;;25.66;35.00;100350.03;7394428;19;20500;-86
2023/04/07 08:42:48;;;;;;;0.50;0.50;;;;;;;25.62;34.85;100349.66;7394128;19;20022;-85
2023/04/07 08:45:16;;;;;;;0.40;0.40;;;;;;;25.71;34.75;100351.97;7393924;19;20014;-85
2023/04/07 08:47:45;;;;;;;2.05;0.50;;;;;;;25.79;35.01;100342.06;7394658;19;20030;-86
2023/04/07 08:50:11;;;;;;;0.88;0.88;;;;;;;25.95;34.75;100343.56;7395130;19;20018;-85
2023/04/07 08:52:48;;;;;;;0.85;0.85;;;;;;;25.85;34.92;100351.19;7395540;19;20043;-83
2023/04/07 08:55:15;;;;;;;0.80;0.80;;;;;;;25.88;34.96;100343.59;7392268;19;20010;-85
2023/04/07 08:57:42;;;;;;;0.40;0.40;;;;;;;25.86;35.17;100346.25;7393461;19;20022;-85
2023/04/07 09:00:09;;;;;;;1.35;1.20;;;;;;;25.93;34.89;100348.34;7393387;19;20020;-87
2023/04/07 09:02:38;;;;;;;0.65;0.60;;;;;;;26.00;35.03;100351.19;7394653;19;20026;-86
2023/04/07 09:05:06;;;;;;;0.60;0.60;;;;;;;26.21;34.65;100345.28;7398555;19;20011;-84
2023/04/07 09:07:35;;;;;;;0.40;0.40;;;;;;;26.49;34.22;100347.91;7394356;19;20018;-86
2023/04/07 09:10:01;;;;;;;0.52;0.52;;;;;;;26.52;33.99;100352.47;7395591;19;20006;-85
2023/04/07 09:12:29;;;;;;;3.20;1.27;;;;;;;26.67;34.18;100346.72;7393910;19;20026;-86
2023/04/07 09:14:56;;;;;;;0.52;0.52;;;;;;;26.92;33.26;100344.00;7393559;19;20010;-85
2023/04/07 09:17:25;;;;;;;8.20;1.05;;;;;;;27.08;33.08;100347.53;7393663;19;20013;-86
2023/04/07 09:19:59;;;;;;;0.30;0.30;;;;;;;27.13;32.45;100340.84;7391334;19;20363;-86
2023/04/07 09:22:49;;;;;;;0.75;0.75;;;;;;;27.11;32.21;100341.44;7392284;19;20022;-86
2023/04/07 09:25:17;;;;;;;0.20;0.20;;;;;;;27.21;32.07;100344.41;7394466;19;20015;-86
2023/04/07 09:28:03;;;;;;;0.20;0.20;;;;;;;27.45;31.83;100343.72;7393602;19;20029;-86
2023/04/07 09:30:32;;;;;;;0.70;0.50;;;;;;;27.63;32.13;100348.19;7393546;19;20018;-86
2023/04/07 09:33:00;;;;;;;0.30;0.30;;;;;;;27.71;31.58;100349.66;7395643;19;20010;-86
2023/04/07 09:35:27;;;;;;;1.00;1.00;;;;;;;27.87;31.66;100346.66;7393887;19;20032;-87
2023/04/07 09:38:07;;;;;;;0.52;0.40;;;;;;;28.03;31.75;100348.84;7393781;19;20011;-88
2023/04/07 09:40:35;;;;;;;1.00;0.93;;;;;;;28.14;31.55;100347.59;7395377;19;20106;-85
2023/04/07 09:43:03;;;;;;;3.45;0.35;;;;;;;28.25;31.57;100347.88;7394693;19;20407;-86
2023/04/07 09:45:34;;;;;;;0.35;0.32;;;;;;;28.39;30.87;100337.59;7395076;19;20027;-87
2023/04/07 09:48:04;;;;;;;0.25;0.25;;;;;;;28.46;30.96;100339.63;7395602;19;20022;-87
2023/04/07 09:50:34;;;;;;;0.30;0.30;;;;;;;28.66;30.75;100342.69;7392829;19;20042;-87
2023/04/07 09:53:01;;;;;;;0.35;0.35;;;;;;;28.84;30.49;100344.19;7393226;19;20362;-87
2023/04/07 09:55:29;;;;;;;0.10;0.10;;;;;;;28.88;30.46;100347.41;7392887;19;20019;-86
2023/04/07 09:57:55;;;;;;;16.25;0.73;;;;;;;28.92;30.41;100344.84;7391767;19;20049;-86
2023/04/07 10:00:22;;;;;;;0.15;0.10;;;;;;;29.32;29.67;100347.44;7394073;19;20018;-87
2023/04/07 10:02:50;;;;;;;3.75;0.63;;;;;;;29.47;29.09;100342.22;7399577;19;20335;-86
2023/04/07 10:05:16;;;;;;;2.15;0.38;;;;;;;29.58;28.40;100335.94;7403981;19;20015;-86
2023/04/07 10:07:43;;;;;;;0.77;0.30;;;;;;;29.79;28.47;100338.31;7401589;19;20015;-86
2023/04/07 10:10:09;;;;;;;0.20;0.20;;;;;;;31.71;26.76;100339.06;7401537;19;20058;-87
2023/04/07 10:12:37;;;;;;;0.20;0.20;;;;;;;31.85;24.93;100331.44;7399197;19;20031;-87
2023/04/07 10:15:04;;;;;;;0.77;0.50;;;;;;;32.07;24.46;100330.13;7400198;19;20089;-87
2023/04/07 10:17:32;;;;;;;0.10;0.10;;;;;;;32.15;24.43;100330.69;7398461;19;20014;-86
2023/04/07 10:20:00;;;;;;;0.40;0.22;;;;;;;32.12;24.36;100332.66;7396745;19;20007;-84
2023/04/07 10:22:27;;;;;;;0.50;0.15;;;;;;;31.62;24.12;100331.25;7396374;19;20487;-84
2023/04/07 10:25:04;;;;;;;0.10;0.10;;;;;;;30.48;24.57;100335.75;7398440;19;20019;-84
2023/04/07 10:27:40;;;;;;;1.05;0.28;;;;;;;30.87;23.83;100328.66;7396288;19;20014;-84
2023/04/07 10:30:12;;;;;;;0.10;0.10;;;;;;;25.92;28.16;100343.97;7395594;19;20414;-86
2023/04/07 10:32:48;;;;;;;0.90;0.30;;;;;;;26.36;28.75;100327.41;7397519;19;20025;-85
2023/04/07 10:35:16;;;;;;;0.93;0.43;;;;;;;25.03;29.89;100337.50;7401488;19;20417;-85
2023/04/07 10:38:07;;;;;;;0.25;0.15;;;;;;;26.42;29.48;100328.72;7395692;19;20011;-85
2023/04/07 10:40:34;;;;;;;3.33;1.08;;;;;;;25.85;29.79;100339.00;7397159;19;20026;-85
2023/04/07 10:43:00;;;;;;;0.40;0.40;;;;;;;25.75;29.24;100332.38;7396871;19;20039;-85
2023/04/07 10:45:44;;;;;;;0.17;0.10;;;;;;;25.32;29.83;100330.34;7396257;19;20464;-85
2023/04/07 10:48:12;;;;;;;0.10;0.10;;;;;;;24.63;30.54;100332.19;7396444;19;20039;-84
2023/04/07 10:50:38;;;;;;;0.40;0.30;;;;;;;23.78;31.01;100327.81;7395641;19;20007;-85
2023/04/07 10:53:12;;;;;;;0.30;0.20;;;;;;;23.02;32.84;100331.94;7396243;19;20018;-84
2023/04/07 10:55:45;;;;;;;0.63;0.20;;;;;;;23.12;31.20;100330.16;7396132;19;20021;-84
2023/04/07 10:58:12;;;;;;;0.65;0.30;;;;;;;23.55;30.92;100327.59;7393641;19;20019;-84
2023/04/07 11:00:38;;;;;;;0.77;0.45;;;;;;;24.24;30.71;100328.91;7397052;19;20022;-84
2023/04/07 11:03:14;;;;;;;3.15;0.40;;;;;;;24.68;30.46;100334.13;7394912;19;20112;-83
2023/04/07 11:05:41;;;;;;;1.05;0.55;;;;;;;23.93;31.42;100325.81;7394742;19;20051;-83
2023/04/07 11:08:07;;;;;;;3.30;0.20;;;;;;;25.00;30.89;100328.00;7396160;19;20025;-83
2023/04/07 11:10:34;;;;;;;0.20;0.20;;;;;;;26.00;29.44;100316.94;7399348;19;20018;-83
2023/04/07 11:13:03;;;;;;;2.60;0.57;;;;;;;24.40;31.10;100330.53;7394253;19;20024;-82
2023/04/07 11:15:29;;;;;;;0.45;0.45;;;;;;;25.96;29.93;100327.22;7394951;19;20489;-83
2023/04/07 11:18:13;;;;;;;0.57;0.57;;;;;;;24.88;31.14;100328.91;7392567;19;20045;-83
2023/04/07 11:20:45;;;;;;;0.20;0.10;;;;;;;25.00;31.27;100330.09;7396360;19;20022;-83
2023/04/07 11:23:13;;;;;;;0.20;0.20;;;;;;;24.19;31.81;100339.13;7397600;19;20085;-83
2023/04/07 11:25:42;;;;;;;2.38;0.20;;;;;;;24.10;31.11;100334.69;7393393;19;20014;-83
2023/04/07 11:28:11;;;;;;;0.10;0.10;;;;;;;24.53;30.79;100327.59;7393320;19;20341;-83
2023/04/07 11:30:37;;;;;;;0.10;0.10;;;;;;;25.39;30.03;100333.25;7394449;19;20011;-83